Time;durP1;ratioP1;P1;durP2;ratioP2;P2;SDS_P1;SDS_P2;PMS_P1;PMS_P2;Temp;Humidity;BMP_temperature;BMP_pressure;BME280_temperature;BME280_humidity;BME280_pressure;Samples;Min_cycle;Max_cycle;Signal;HPM_P1;HPM_P2
2021/05/24 00:01:33;;;;;;;;;;;11.30;52.40;;;;;;5082463;28;19913;-81
2021/05/24 00:03:58;;;;;;;;;;;11.30;52.60;;;;;;5097023;28;19908;-82
2021/05/24 00:06:26;;;;;;;;;;;11.40;52.80;;;;;;5079960;28;19977;-81
2021/05/24 00:09:15;;;;;;;;;;;11.30;52.70;;;;;;5098461;28;20038;-82
2021/05/24 00:11:50;;;;;;;;;;;;;;;;;;;;;
2021/05/24 00:14:19;;;;;;;;;;;11.40;53.10;;;;;;5100933;28;20007;-81
2021/05/24 00:16:47;;;;;;;;;;;11.30;53.10;;;;;;5079880;28;20570;-82
2021/05/24 00:19:16;;;;;;;;;;;11.30;53.20;;;;;;5095961;28;20383;-82
2021/05/24 00:21:42;;;;;;;;;;;11.30;53.50;;;;;;5082629;28;19962;-82
2021/05/24 00:24:15;;;;;;;;;;;11.30;53.60;;;;;;5081745;28;19913;-82
2021/05/24 00:26:40;;;;;;;;;;;11.30;53.70;;;;;;5085691;28;20003;-82
2021/05/24 00:29:06;;;;;;;;;;;11.20;54.20;;;;;;5081102;28;20390;-81
2021/05/24 00:31:34;;;;;;;;;;;11.20;54.50;;;;;;5094483;28;19919;-82
2021/05/24 00:34:01;;;;;;;;;;;11.10;54.80;;;;;;5083565;28;19913;-82
2021/05/24 00:36:26;;;;;;;;;;;11.10;55.10;;;;;;5093830;28;19987;-82
2021/05/24 00:38:54;;;;;;;;;;;11.10;55.30;;;;;;5099233;28;19936;-82
2021/05/24 00:41:20;;;;;;;;;;;11.20;55.70;;;;;;5083300;28;19913;-82
2021/05/24 00:43:53;;;;;;;;;;;11.10;56.50;;;;;;5094572;28;19916;-82
2021/05/24 00:46:19;;;;;;;;;;;11.00;56.90;;;;;;5081349;28;19963;-82
2021/05/24 00:48:44;;;;;;;;;;;11.10;57.40;;;;;;5088703;28;19912;-82
2021/05/24 00:51:10;;;;;;;;;;;11.00;57.70;;;;;;5099737;28;19912;-82
2021/05/24 00:53:45;;;;;;;;;;;11.00;58.20;;;;;;5091971;28;20299;-82
2021/05/24 00:56:17;;;;;;;;;;;11.00;58.80;;;;;;5080308;28;19912;-82
2021/05/24 00:58:43;;;;;;;;;;;11.00;59.10;;;;;;5078032;28;19912;-82
2021/05/24 01:03:57;;;;;;;;;;;11.00;59.70;;;;;;5078730;28;19923;-82
2021/05/24 01:06:22;;;;;;;;;;;11.00;60.00;;;;;;5079762;28;19919;-82
2021/05/24 01:08:58;;;;;;;;;;;11.00;60.70;;;;;;5079240;28;19917;-82
2021/05/24 01:11:26;;;;;;;;;;;11.00;61.40;;;;;;5090068;28;19923;-81
2021/05/24 01:14:01;;;;;;;;;;;11.10;62.30;;;;;;5096856;28;20368;-82
2021/05/24 01:16:27;;;;;;;;;;;11.10;63.40;;;;;;5097180;28;19915;-82
2021/05/24 01:18:53;;;;;;;;;;;11.10;64.10;;;;;;5096813;28;19912;-82
2021/05/24 01:21:38;;;;;;;;;;;11.10;65.00;;;;;;5077871;28;19913;-82
2021/05/24 01:24:07;;;;;;;;;;;11.10;65.90;;;;;;5078886;28;20518;-82
2021/05/24 01:26:33;;;;;;;;;;;11.20;67.30;;;;;;5096814;28;19922;-82
2021/05/24 01:29:03;;;;;;;;;;;11.20;68.30;;;;;;5098772;28;19912;-82
2021/05/24 01:31:31;;;;;;;;;;;11.20;69.10;;;;;;5097948;28;19912;-81
2021/05/24 01:33:58;;;;;;;;;;;11.20;70.10;;;;;;5087676;28;19924;-82
2021/05/24 01:36:27;;;;;;;;;;;11.20;71.70;;;;;;5085068;28;19948;-82
2021/05/24 01:38:53;;;;;;;;;;;11.20;72.80;;;;;;5078402;28;19912;-82
2021/05/24 01:41:18;;;;;;;;;;;11.20;73.80;;;;;;5091346;28;19916;-84
2021/05/24 01:43:44;;;;;;;;;;;11.20;75.00;;;;;;5096475;28;20292;-82
2021/05/24 01:46:09;;;;;;;;;;;11.20;76.40;;;;;;5099447;28;19916;-81
2021/05/24 01:48:38;;;;;;;;;;;11.30;78.40;;;;;;5089337;28;19969;-82
2021/05/24 01:51:09;;;;;;;;;;;11.30;79.90;;;;;;5087128;28;19913;-82
2021/05/24 01:53:36;;;;;;;;;;;11.40;81.60;;;;;;5096221;28;19975;-82
2021/05/24 01:56:04;;;;;;;;;;;11.40;83.40;;;;;;5089999;28;19919;-82
2021/05/24 01:58:30;;;;;;;;;;;11.40;85.10;;;;;;5079912;28;19916;-81
2021/05/24 02:01:09;;;;;;;;;;;11.40;87.50;;;;;;5092872;28;19962;-81
2021/05/24 02:03:47;;;;;;;;;;;11.40;89.70;;;;;;5093569;28;19972;-82
2021/05/24 02:06:15;;;;;;;;;;;11.50;90.90;;;;;;5085126;28;19917;-82
2021/05/24 02:08:40;;;;;;;;;;;11.50;92.10;;;;;;5078454;28;19916;-81
2021/05/24 02:11:26;;;;;;;;;;;11.50;92.90;;;;;;5085645;28;19926;-82
2021/05/24 02:13:52;;;;;;;;;;;11.70;94.00;;;;;;5093076;28;19945;-81
2021/05/24 02:16:26;;;;;;;;;;;11.50;94.70;;;;;;5088899;28;20372;-82
2021/05/24 02:18:54;;;;;;;;;;;11.60;95.50;;;;;;5089367;28;19916;-82
2021/05/24 02:21:22;;;;;;;;;;;11.60;96.30;;;;;;5087938;28;19981;-82
2021/05/24 02:23:47;;;;;;;;;;;11.60;97.20;;;;;;5080032;28;19912;-82
2021/05/24 02:26:13;;;;;;;;;;;11.60;98.30;;;;;;5092996;28;19998;-82
2021/05/24 02:28:38;;;;;;;;;;;11.50;98.90;;;;;;5097632;28;19933;-82
2021/05/24 02:31:06;;;;;;;;;;;11.60;99.60;;;;;;5088901;28;19912;-81
2021/05/24 02:33:32;;;;;;;;;;;11.60;99.90;;;;;;5080873;28;19927;-82
2021/05/24 02:35:59;;;;;;;;;;;11.60;99.90;;;;;;5095547;28;19908;-83
2021/05/24 02:38:25;;;;;;;;;;;11.60;99.90;;;;;;5092934;28;19916;-82
2021/05/24 02:40:51;;;;;;;;;;;11.70;99.90;;;;;;5097401;28;20014;-82
2021/05/24 02:43:19;;;;;;;;;;;11.70;99.90;;;;;;5095335;28;19916;-82
2021/05/24 02:45:46;;;;;;;;;;;11.70;99.90;;;;;;5076568;28;19969;-82
2021/05/24 02:48:12;;;;;;;;;;;11.70;99.90;;;;;;5078211;28;19908;-82
2021/05/24 02:50:38;;;;;;;;;;;11.70;99.90;;;;;;5079858;28;19920;-81
2021/05/24 02:53:03;;;;;;;;;;;11.70;99.90;;;;;;5077445;28;19912;-82
2021/05/24 02:55:32;;;;;;;;;;;11.70;99.90;;;;;;5076215;28;19916;-82
2021/05/24 02:57:58;;;;;;;;;;;11.70;99.90;;;;;;5099986;28;19912;-81
2021/05/24 03:00:45;;;;;;;;;;;11.70;99.90;;;;;;5086716;28;19920;-82
2021/05/24 03:03:12;;;;;;;;;;;11.70;99.90;;;;;;5076285;28;19915;-81
2021/05/24 03:05:40;;;;;;;;;;;11.70;99.90;;;;;;5094223;28;19968;-82
2021/05/24 03:08:06;;;;;;;;;;;11.60;99.90;;;;;;5096667;28;19912;-82
2021/05/24 03:10:34;;;;;;;;;;;11.60;99.90;;;;;;5078372;28;20045;-82
2021/05/24 03:13:00;;;;;;;;;;;11.60;99.90;;;;;;5077909;28;20381;-82
2021/05/24 03:15:31;;;;;;;;;;;11.60;99.90;;;;;;5078997;28;19919;-81
2021/05/24 03:17:56;;;;;;;;;;;11.70;99.90;;;;;;5078336;28;20334;-82
2021/05/24 03:20:22;;;;;;;;;;;11.60;99.90;;;;;;5088687;28;19912;-82
2021/05/24 03:23:05;;;;;;;;;;;11.60;99.90;;;;;;5089230;28;19912;-82
2021/05/24 03:25:30;;;;;;;;;;;11.70;99.90;;;;;;5094742;28;19926;-81
2021/05/24 03:27:59;;;;;;;;;;;11.70;99.90;;;;;;5096775;28;19947;-82
2021/05/24 03:30:24;;;;;;;;;;;11.70;99.90;;;;;;5085725;28;19919;-82
2021/05/24 03:32:50;;;;;;;;;;;11.70;99.90;;;;;;5076287;28;19908;-82
2021/05/24 03:35:15;;;;;;;;;;;11.80;99.90;;;;;;5085867;28;20005;-82
2021/05/24 03:37:44;;;;;;;;;;;11.80;99.90;;;;;;5096822;28;19932;-82
2021/05/24 03:40:10;;;;;;;;;;;11.80;99.90;;;;;;5091348;28;19918;-82
2021/05/24 03:42:36;;;;;;;;;;;11.90;99.90;;;;;;5082608;28;19913;-82
2021/05/24 03:45:04;;;;;;;;;;;11.90;99.90;;;;;;5086073;28;20360;-82
2021/05/24 03:47:38;;;;;;;;;;;11.90;99.90;;;;;;5095902;28;20280;-81
2021/05/24 03:50:25;;;;;;;;;;;11.90;99.90;;;;;;5077466;28;19917;-82
2021/05/24 03:52:56;;;;;;;;;;;12.00;99.90;;;;;;5072400;28;19915;-82
2021/05/24 03:55:22;;;;;;;;;;;12.00;99.90;;;;;;5080740;28;19912;-82
2021/05/24 03:58:01;;;;;;;;;;;;;;;;;;;;;
2021/05/24 04:00:32;;;;;;;;;;;12.10;99.90;;;;;;5078202;28;20463;-82
2021/05/24 04:03:02;;;;;;;;;;;12.10;99.90;;;;;;5076482;28;19913;-82
2021/05/24 04:05:31;;;;;;;;;;;12.10;99.90;;;;;;5097366;28;19912;-82
2021/05/24 04:07:58;;;;;;;;;;;12.10;99.90;;;;;;5084027;28;19912;-82
2021/05/24 04:10:26;;;;;;;;;;;12.20;99.90;;;;;;5093200;28;20333;-82
2021/05/24 04:12:55;;;;;;;;;;;12.20;99.90;;;;;;5089505;28;19934;-83
2021/05/24 04:15:30;;;;;;;;;;;12.20;99.90;;;;;;5076915;28;19913;-82
2021/05/24 04:17:59;;;;;;;;;;;12.20;99.90;;;;;;5081528;28;20303;-82
2021/05/24 04:20:25;;;;;;;;;;;12.20;99.90;;;;;;5075961;28;19916;-82
2021/05/24 04:22:53;;;;;;;;;;;12.20;99.90;;;;;;5080599;28;19923;-82
2021/05/24 04:25:19;;;;;;;;;;;12.30;99.90;;;;;;5096047;28;19926;-82
2021/05/24 04:27:47;;;;;;;;;;;12.30;99.90;;;;;;5095309;28;20386;-82
2021/05/24 04:30:14;;;;;;;;;;;12.40;99.90;;;;;;5091362;28;20452;-82
2021/05/24 04:32:40;;;;;;;;;;;12.50;99.90;;;;;;5077092;28;21631;-82
2021/05/24 04:35:07;;;;;;;;;;;12.50;99.90;;;;;;5091617;28;19934;-82
2021/05/24 04:37:32;;;;;;;;;;;12.60;99.90;;;;;;5094350;28;19913;-84
2021/05/24 04:39:58;;;;;;;;;;;12.60;99.90;;;;;;5101618;28;20382;-83
2021/05/24 04:42:26;;;;;;;;;;;12.70;99.90;;;;;;5099687;28;20823;-82
2021/05/24 04:44:59;;;;;;;;;;;12.70;99.90;;;;;;5080844;28;20403;-83
2021/05/24 04:47:28;;;;;;;;;;;12.90;99.90;;;;;;5088578;28;20400;-83
2021/05/24 04:49:53;;;;;;;;;;;12.90;99.90;;;;;;5080598;28;19913;-82
2021/05/24 04:52:21;;;;;;;;;;;13.00;99.90;;;;;;5078377;28;19999;-83
2021/05/24 04:54:47;;;;;;;;;;;13.10;99.90;;;;;;5099269;28;19947;-82
2021/05/24 04:57:18;;;;;;;;;;;13.10;99.90;;;;;;5099676;28;19912;-83
2021/05/24 04:59:44;;;;;;;;;;;13.20;99.90;;;;;;5090684;28;19912;-82
2021/05/24 05:02:09;;;;;;;;;;;13.30;99.90;;;;;;5100698;28;19914;-82
2021/05/24 05:04:40;;;;;;;;;;;13.50;99.90;;;;;;5083144;28;19916;-82
2021/05/24 05:07:08;;;;;;;;;;;13.60;99.90;;;;;;5079843;28;19942;-83
2021/05/24 05:09:36;;;;;;;;;;;13.60;99.90;;;;;;5084841;28;19912;-82
2021/05/24 05:12:02;;;;;;;;;;;13.70;99.90;;;;;;5080665;28;20280;-82
2021/05/24 05:14:34;;;;;;;;;;;13.70;99.90;;;;;;5084988;28;19912;-82
2021/05/24 05:17:01;;;;;;;;;;;13.80;99.90;;;;;;5080328;28;19915;-82
2021/05/24 05:19:27;;;;;;;;;;;13.90;99.90;;;;;;5080054;28;19919;-82
2021/05/24 05:21:53;;;;;;;;;;;14.00;99.90;;;;;;5078445;28;20289;-82
2021/05/24 05:24:18;;;;;;;;;;;14.10;99.90;;;;;;5082057;28;19913;-82
2021/05/24 05:26:44;;;;;;;;;;;14.20;99.90;;;;;;5098546;28;19930;-82
2021/05/24 05:29:13;;;;;;;;;;;14.30;99.90;;;;;;5086160;28;20012;-82
2021/05/24 05:31:38;;;;;;;;;;;14.50;99.90;;;;;;5079992;28;20003;-82
2021/05/24 05:34:14;;;;;;;;;;;14.70;99.90;;;;;;5088186;28;19940;-82
2021/05/24 05:36:45;;;;;;;;;;;14.80;99.90;;;;;;5084732;28;20372;-82
2021/05/24 05:39:11;;;;;;;;;;;15.00;99.90;;;;;;5097019;28;19964;-82
2021/05/24 05:41:36;;;;;;;;;;;15.10;99.90;;;;;;5101633;28;19908;-82
2021/05/24 05:44:20;;;;;;;;;;;15.30;99.90;;;;;;5091761;28;19908;-82
2021/05/24 05:46:54;;;;;;;;;;;15.70;99.90;;;;;;5084072;28;20352;-81
2021/05/24 05:49:23;;;;;;;;;;;16.10;99.90;;;;;;5088930;28;19923;-82
2021/05/24 05:51:48;;;;;;;;;;;16.60;99.90;;;;;;5092257;28;19966;-81
2021/05/24 05:54:17;;;;;;;;;;;17.30;99.90;;;;;;5086394;28;19912;-82
2021/05/24 05:56:42;;;;;;;;;;;17.60;99.90;;;;;;5082884;28;20075;-82
2021/05/24 05:59:08;;;;;;;;;;;17.50;99.90;;;;;;5080699;28;19915;-82
2021/05/24 06:01:34;;;;;;;;;;;17.60;99.90;;;;;;5082412;28;19913;-82
2021/05/24 06:03:59;;;;;;;;;;;18.50;99.90;;;;;;5087339;28;19908;-82
2021/05/24 06:06:27;;;;;;;;;;;19.40;99.90;;;;;;5104234;28;20148;-81
2021/05/24 06:08:53;;;;;;;;;;;19.20;99.50;;;;;;5097848;28;19908;-81
2021/05/24 06:11:22;;;;;;;;;;;21.00;98.80;;;;;;5089910;28;19919;-83
2021/05/24 06:13:47;;;;;;;;;;;25.60;91.20;;;;;;5092740;28;19954;-83
2021/05/24 06:16:16;;;;;;;;;;;29.90;68.00;;;;;;5104627;28;19919;-82
2021/05/24 06:18:41;;;;;;;;;;;32.80;54.80;;;;;;5089281;28;19908;-81
2021/05/24 06:21:10;;;;;;;;;;;34.60;48.00;;;;;;5083683;28;19927;-81
2021/05/24 06:23:49;;;;;;;;;;;;;;;;;;;;;
2021/05/24 06:26:15;;;;;;;;;;;37.80;41.30;;;;;;5101556;28;19984;-81
2021/05/24 06:28:56;;;;;;;;;;;39.20;37.50;;;;;;5093943;28;19916;-81
2021/05/24 06:31:27;;;;;;;;;;;39.60;36.20;;;;;;5088375;28;19958;-81
2021/05/24 06:34:10;;;;;;;;;;;40.40;32.50;;;;;;5102872;28;19919;-80
2021/05/24 06:36:48;;;;;;;;;;;;;;;;;;;;;
2021/05/24 06:39:24;;;;;;;;;;;42.90;31.50;;;;;;5085773;28;19980;-81
2021/05/24 06:41:56;;;;;;;;;;;43.90;29.00;;;;;;5090432;28;19962;-81
2021/05/24 06:44:27;;;;;;;;;;;45.10;27.50;;;;;;5102148;28;20407;-81
2021/05/24 06:46:52;;;;;;;;;;;46.00;26.20;;;;;;5098884;28;19912;-81
2021/05/24 06:49:23;;;;;;;;;;;46.70;25.30;;;;;;5087479;28;19926;-81
2021/05/24 06:52:05;;;;;;;;;;;46.20;24.40;;;;;;5103109;28;19920;-81
2021/05/24 06:54:35;;;;;;;;;;;45.70;24.50;;;;;;5099174;28;19912;-82
2021/05/24 06:57:03;;;;;;;;;;;44.90;25.20;;;;;;5082919;28;19924;-81
2021/05/24 06:59:29;;;;;;;;;;;43.10;25.50;;;;;;5083547;28;19916;-81
2021/05/24 07:01:55;;;;;;;;;;;40.40;26.00;;;;;;5084664;28;19947;-81
2021/05/24 07:04:20;;;;;;;;;;;37.30;27.10;;;;;;5093294;28;19942;-80
2021/05/24 07:06:46;;;;;;;;;;;33.90;28.20;;;;;;5103105;28;19908;-80
2021/05/24 07:09:11;;;;;;;;;;;31.30;29.50;;;;;;5092346;28;19919;-80
2021/05/24 07:11:40;;;;;;;;;;;29.00;31.00;;;;;;5085052;28;19919;-82
2021/05/24 07:14:05;;;;;;;;;;;27.00;32.80;;;;;;5079120;28;19913;-82
2021/05/24 07:16:31;;;;;;;;;;;25.30;34.50;;;;;;5081759;28;19923;-82
2021/05/24 07:18:57;;;;;;;;;;;23.90;35.80;;;;;;5097761;28;19912;-82
2021/05/24 07:21:22;;;;;;;;;;;23.00;36.80;;;;;;5113743;28;19981;-79
2021/05/24 07:23:58;;;;;;;;;;;22.30;37.60;;;;;;5098479;28;19919;-81
2021/05/24 07:26:24;;;;;;;;;;;21.80;38.10;;;;;;5100555;28;19913;-80
2021/05/24 07:28:49;;;;;;;;;;;21.40;38.50;;;;;;5093161;28;19913;-80
2021/05/24 07:31:15;;;;;;;;;;;21.10;38.90;;;;;;5082398;28;20388;-80
2021/05/24 07:33:43;;;;;;;;;;;20.80;39.20;;;;;;5089307;28;19951;-81
2021/05/24 07:36:08;;;;;;;;;;;20.50;39.60;;;;;;5099268;28;19923;-81
2021/05/24 07:38:34;;;;;;;;;;;20.20;39.90;;;;;;5090122;28;19916;-81
2021/05/24 07:41:20;;;;;;;;;;;19.80;40.10;;;;;;5085588;28;20394;-81
2021/05/24 07:43:53;;;;;;;;;;;19.70;40.40;;;;;;5088028;28;19919;-81
2021/05/24 07:49:46;;;;;;;;;;;19.30;41.00;;;;;;5098629;28;19923;-81
2021/05/24 07:52:33;;;;;;;;;;;19.10;41.30;;;;;;5083540;28;19915;-81
2021/05/24 07:55:02;;;;;;;;;;;19.10;41.60;;;;;;5087379;28;19919;-80
2021/05/24 07:57:36;;;;;;;;;;;19.10;41.90;;;;;;5084278;28;19915;-81
2021/05/24 08:00:11;;;;;;;;;;;19.00;42.00;;;;;;5094466;28;19912;-81
2021/05/24 08:02:44;;;;;;;;;;;19.00;42.10;;;;;;5083736;28;19919;-81
2021/05/24 08:05:13;;;;;;;;;;;19.10;42.30;;;;;;5083087;28;19919;-81
2021/05/24 08:07:57;;;;;;;;;;;19.20;42.40;;;;;;5085114;28;19909;-81
2021/05/24 08:10:41;;;;;;;;;;;19.30;42.50;;;;;;5092153;28;20079;-81
2021/05/24 08:13:07;;;;;;;;;;;19.30;42.60;;;;;;5088831;28;19978;-80
2021/05/24 08:15:35;;;;;;;;;;;19.30;42.70;;;;;;5092896;28;19999;-80
2021/05/24 08:18:08;;;;;;;;;;;19.20;42.80;;;;;;5086367;28;19908;-82
2021/05/24 08:20:49;;;;;;;;;;;19.30;42.90;;;;;;5090677;28;20470;-82
2021/05/24 08:23:14;;;;;;;;;;;19.20;43.00;;;;;;5084317;28;19916;-81
2021/05/24 08:25:40;;;;;;;;;;;19.20;43.20;;;;;;5096616;28;19923;-82
2021/05/24 08:28:10;;;;;;;;;;;19.20;43.40;;;;;;5083715;28;19920;-82
2021/05/24 08:30:46;;;;;;;;;;;;;;;;;;;;;
2021/05/24 08:33:12;;;;;;;;;;;19.00;43.70;;;;;;5100464;28;20321;-82
2021/05/24 08:35:41;;;;;;;;;;;19.10;44.00;;;;;;5099680;28;19963;-81
2021/05/24 08:38:06;;;;;;;;;;;18.90;44.20;;;;;;5085220;28;20003;-81
2021/05/24 08:40:40;;;;;;;;;;;18.90;44.30;;;;;;5079721;28;19943;-81
2021/05/24 08:43:10;;;;;;;;;;;18.80;44.40;;;;;;5094320;28;19924;-81
2021/05/24 08:46:05;;;;;;;;;;;18.80;44.50;;;;;;5097003;28;20368;-81
2021/05/24 08:48:33;;;;;;;;;;;18.70;44.60;;;;;;5091682;28;19969;-81
2021/05/24 08:50:58;;;;;;;;;;;18.70;44.50;;;;;;5098148;28;20011;-81
2021/05/24 08:53:41;;;;;;;;;;;18.80;44.60;;;;;;5092604;28;20008;-82
2021/05/24 08:56:10;;;;;;;;;;;18.80;44.60;;;;;;5099929;28;20136;-81
2021/05/24 08:58:38;;;;;;;;;;;18.70;44.60;;;;;;5102357;28;19920;-81
2021/05/24 09:01:04;;;;;;;;;;;18.70;44.80;;;;;;5102155;28;19965;-82
2021/05/24 09:03:33;;;;;;;;;;;18.60;44.80;;;;;;5104630;28;19913;-82
2021/05/24 09:06:00;;;;;;;;;;;18.60;44.90;;;;;;5101556;28;19912;-81
2021/05/24 09:08:36;;;;;;;;;;;18.60;45.10;;;;;;5096771;28;20517;-81
2021/05/24 09:11:02;;;;;;;;;;;18.50;45.10;;;;;;5083346;28;19919;-81
2021/05/24 09:13:29;;;;;;;;;;;18.50;45.20;;;;;;5097628;28;19923;-81
2021/05/24 09:15:55;;;;;;;;;;;18.50;45.20;;;;;;5095400;28;19969;-81
2021/05/24 09:21:53;;;;;;;;;;;18.50;45.40;;;;;;5056540;28;20374;-81
2021/05/24 09:24:26;;;;;;;;;;;18.40;45.50;;;;;;5046609;28;19920;-81
2021/05/24 09:26:58;;;;;;;;;;;18.30;45.50;;;;;;5084114;28;19912;-80
2021/05/24 09:33:17;;;;;;;;;;;18.40;45.70;;;;;;5003938;28;19945;-81
2021/05/24 11:08:09;;;;;;;;;;;17.80;47.40;;;;;;5060892;28;19923;-80
2021/05/24 12:21:13;;;;;;;;;;;19.30;50.80;;;;;;5062252;28;19971;-81
2021/05/24 12:38:58;;;;;;;;;;;19.50;51.50;;;;;;5153603;22;20419;-82
2021/05/24 13:13:47;;;;;;;;;;;16.30;55.10;;;;;;5038684;28;19989;-81
2021/05/24 13:16:57;;;;;;;;;;;;;;;;;;;;;
2021/05/24 13:32:26;;;;;;;;;;;15.00;57.70;;;;;;4985882;28;19917;-82
2021/05/24 13:34:57;;;;;;;;;;;15.10;57.90;;;;;;5019246;28;19917;-81
2021/05/24 13:37:40;;;;;;;;;;;15.30;57.90;;;;;;5038534;28;19920;-81
2021/05/24 13:40:19;;;;;;;;;;;15.60;57.80;;;;;;5038267;28;19925;-81
2021/05/24 13:42:47;;;;;;;;;;;16.00;57.80;;;;;;5038609;28;19917;-82
2021/05/24 13:45:20;;;;;;;;;;;16.50;57.30;;;;;;5033877;28;19913;-81
2021/05/24 13:47:53;;;;;;;;;;;16.90;56.90;;;;;;5037091;28;19917;-81
2021/05/24 13:53:23;;;;;;;;;;;17.00;56.70;;;;;;5040324;28;19913;-81
2021/05/24 13:55:52;;;;;;;;;;;16.90;56.70;;;;;;5031182;28;20417;-81
2021/05/24 14:05:14;;;;;;;;;;;;;;;;;;;;;
2021/05/24 14:08:04;;;;;;;;;;;;;;;;;;;;;
2021/05/24 14:10:30;;;;;;;;;;;17.30;56.90;;;;;;4991095;28;20666;-82
2021/05/24 14:13:21;;;;;;;;;;;17.70;56.60;;;;;;5002311;28;19941;-82
2021/05/24 14:19:16;;;;;;;;;;;18.30;56.30;;;;;;5005602;28;19945;-82
2021/05/24 14:21:59;;;;;;;;;;;18.60;56.20;;;;;;4993930;28;19932;-81
2021/05/24 14:24:40;;;;;;;;;;;18.90;56.10;;;;;;4987387;28;19968;-81
2021/05/24 14:27:28;;;;;;;;;;;18.90;56.00;;;;;;5010132;28;19933;-81
2021/05/24 14:30:00;;;;;;;;;;;18.90;56.00;;;;;;5007128;28;19920;-81
2021/05/24 14:32:37;;;;;;;;;;;18.90;56.20;;;;;;5039236;28;19913;-81
2021/05/24 14:38:00;;;;;;;;;;;18.60;56.50;;;;;;5030344;28;19913;-82
2021/05/24 14:40:25;;;;;;;;;;;18.50;56.70;;;;;;5036239;28;19920;-81
2021/05/24 14:43:03;;;;;;;;;;;18.60;56.80;;;;;;5049702;28;20004;-81
2021/05/24 14:45:48;;;;;;;;;;;18.50;56.80;;;;;;5034789;28;20327;-82
2021/05/24 14:48:37;;;;;;;;;;;18.50;57.00;;;;;;5036274;28;19921;-81
2021/05/24 14:51:11;;;;;;;;;;;18.60;57.00;;;;;;5036557;28;20426;-81
2021/05/24 14:53:39;;;;;;;;;;;19.00;56.90;;;;;;5038835;28;19913;-81
2021/05/24 14:56:05;;;;;;;;;;;19.40;56.50;;;;;;5036511;28;20040;-82
2021/05/24 14:58:33;;;;;;;;;;;19.60;56.10;;;;;;5038219;28;19925;-82
2021/05/24 15:01:07;;;;;;;;;;;19.90;56.00;;;;;;5039089;28;19919;-81
2021/05/24 15:03:35;;;;;;;;;;;20.00;55.80;;;;;;5038496;28;19917;-81
2021/05/24 15:06:15;;;;;;;;;;;20.10;55.60;;;;;;5036321;28;19936;-81
2021/05/24 15:08:41;;;;;;;;;;;20.00;55.60;;;;;;5033247;28;19917;-81
2021/05/24 15:11:34;;;;;;;;;;;20.00;55.50;;;;;;5028062;28;20335;-81
2021/05/24 15:14:02;;;;;;;;;;;20.00;55.50;;;;;;5035762;28;19927;-81
2021/05/24 15:16:28;;;;;;;;;;;20.10;55.40;;;;;;5037131;28;20043;-81
2021/05/24 15:18:54;;;;;;;;;;;20.30;55.30;;;;;;5039666;28;19959;-81
2021/05/24 15:21:25;;;;;;;;;;;20.30;55.20;;;;;;5037416;28;19952;-81
2021/05/24 15:23:54;;;;;;;;;;;20.30;55.10;;;;;;5053544;28;20297;-81
2021/05/24 15:26:20;;;;;;;;;;;20.30;55.10;;;;;;5030696;28;19918;-81
2021/05/24 15:28:49;;;;;;;;;;;20.20;55.00;;;;;;5049695;28;20160;-80
2021/05/24 15:31:28;;;;;;;;;;;;;;;;;;;;;
2021/05/24 15:33:59;;;;;;;;;;;20.00;55.00;;;;;;5034591;28;20004;-82
2021/05/24 15:36:25;;;;;;;;;;;19.80;55.10;;;;;;5037925;28;19918;-81
2021/05/24 15:39:01;;;;;;;;;;;;;;;;;;;;;
2021/05/24 15:41:36;;;;;;;;;;;19.70;55.20;;;;;;5039396;28;20337;-81
2021/05/24 15:44:01;;;;;;;;;;;19.80;55.20;;;;;;5057014;28;20004;-81
2021/05/24 15:46:27;;;;;;;;;;;19.90;55.20;;;;;;5041476;28;19964;-81
2021/05/24 15:48:55;;;;;;;;;;;20.00;55.20;;;;;;5034393;28;20003;-81
2021/05/24 15:51:21;;;;;;;;;;;20.20;55.00;;;;;;5027437;28;19925;-82
2021/05/24 15:53:46;;;;;;;;;;;20.40;55.30;;;;;;5039734;28;19913;-82
2021/05/24 15:56:27;;;;;;;;;;;20.40;54.40;;;;;;5039732;28;20022;-81
2021/05/24 15:58:52;;;;;;;;;;;20.40;54.20;;;;;;5038325;28;19924;-82
2021/05/24 16:01:24;;;;;;;;;;;20.60;54.10;;;;;;5037075;28;19913;-81
2021/05/24 16:03:49;;;;;;;;;;;20.60;53.90;;;;;;5033877;28;19935;-81
2021/05/24 16:06:17;;;;;;;;;;;20.90;54.00;;;;;;5033387;28;20197;-81
2021/05/24 16:08:45;;;;;;;;;;;21.00;53.90;;;;;;5033141;28;19977;-81
2021/05/24 16:11:11;;;;;;;;;;;21.00;53.70;;;;;;5037471;28;19913;-80
2021/05/24 16:13:45;;;;;;;;;;;21.00;53.60;;;;;;5035260;28;20388;-82
2021/05/24 16:16:11;;;;;;;;;;;21.00;53.60;;;;;;5035922;28;19913;-81
2021/05/24 16:18:36;;;;;;;;;;;20.90;53.40;;;;;;5036598;28;20278;-81
2021/05/24 16:21:05;;;;;;;;;;;20.80;53.30;;;;;;5032212;28;19913;-81
2021/05/24 16:23:36;;;;;;;;;;;20.70;53.40;;;;;;5031987;28;19913;-81
2021/05/24 16:26:14;;;;;;;;;;;20.60;53.30;;;;;;5036863;28;19996;-81
2021/05/24 16:28:56;;;;;;;;;;;20.40;53.30;;;;;;5035880;28;20048;-81
2021/05/24 16:31:34;;;;;;;;;;;20.20;53.30;;;;;;5040437;28;19967;-81
2021/05/24 16:33:59;;;;;;;;;;;20.00;53.50;;;;;;5037114;28;19921;-82
2021/05/24 16:36:27;;;;;;;;;;;20.00;53.60;;;;;;5040366;28;19913;-81
2021/05/24 16:39:03;;;;;;;;;;;19.90;53.60;;;;;;5038112;28;19913;-81
2021/05/24 16:41:28;;;;;;;;;;;19.80;53.70;;;;;;5041626;28;19921;-81
2021/05/24 16:44:02;;;;;;;;;;;19.70;53.60;;;;;;5042450;28;19924;-80
2021/05/24 16:46:36;;;;;;;;;;;19.70;53.80;;;;;;5044605;28;19932;-81
2021/05/24 16:49:01;;;;;;;;;;;19.60;53.90;;;;;;5042605;28;20331;-81
2021/05/24 16:51:48;;;;;;;;;;;19.50;53.80;;;;;;5040678;28;19917;-81
2021/05/24 16:54:17;;;;;;;;;;;19.30;53.80;;;;;;5046599;28;19955;-81
2021/05/24 16:57:00;;;;;;;;;;;19.00;53.70;;;;;;5031063;28;20000;-82
2021/05/24 16:59:26;;;;;;;;;;;18.90;53.90;;;;;;5053106;28;19913;-81
2021/05/24 17:01:54;;;;;;;;;;;18.80;54.00;;;;;;5033582;28;19943;-81
2021/05/24 17:04:26;;;;;;;;;;;18.80;54.00;;;;;;5043642;28;19924;-82
2021/05/24 17:09:55;;;;;;;;;;;18.90;53.90;;;;;;5028553;28;20366;-82
2021/05/24 17:12:24;;;;;;;;;;;19.00;53.90;;;;;;5039140;28;19913;-81
2021/05/24 17:14:49;;;;;;;;;;;18.90;53.90;;;;;;5039770;28;19945;-81
2021/05/24 17:17:15;;;;;;;;;;;18.80;53.80;;;;;;5037846;28;19921;-80
2021/05/24 17:19:42;;;;;;;;;;;18.60;53.90;;;;;;5033180;28;19935;-81
2021/05/24 17:22:14;;;;;;;;;;;18.60;53.90;;;;;;5037353;28;19967;-82
2021/05/24 17:24:42;;;;;;;;;;;18.50;53.90;;;;;;5040343;28;19913;-82
2021/05/24 17:27:07;;;;;;;;;;;18.50;54.00;;;;;;5041571;28;19921;-81
2021/05/24 17:29:35;;;;;;;;;;;18.40;54.00;;;;;;5043081;28;19998;-82
2021/05/24 17:32:10;;;;;;;;;;;18.40;54.10;;;;;;5041659;28;19913;-82
2021/05/24 17:34:36;;;;;;;;;;;18.40;54.10;;;;;;5037631;28;19913;-82
2021/05/24 17:37:02;;;;;;;;;;;18.30;54.20;;;;;;5052397;28;19913;-81
2021/05/24 17:39:54;;;;;;;;;;;18.30;54.30;;;;;;5039088;28;19913;-81
2021/05/24 17:42:43;;;;;;;;;;;18.20;54.30;;;;;;5049358;28;19913;-81
2021/05/24 17:45:27;;;;;;;;;;;18.10;54.50;;;;;;5043322;28;19972;-81
2021/05/24 17:47:57;;;;;;;;;;;18.00;54.50;;;;;;5033281;28;19917;-82
2021/05/24 17:52:56;;;;;;;;;;;17.70;54.70;;;;;;5032465;28;19917;-81
2021/05/24 17:55:32;;;;;;;;;;;17.60;54.80;;;;;;5040035;28;19913;-81
2021/05/24 17:58:01;;;;;;;;;;;17.50;54.90;;;;;;5037805;28;19913;-81
2021/05/24 18:00:32;;;;;;;;;;;17.40;55.00;;;;;;5041709;28;20380;-81
2021/05/24 18:03:11;;;;;;;;;;;17.20;55.00;;;;;;5040032;28;19921;-82
2021/05/24 18:05:55;;;;;;;;;;;17.10;55.10;;;;;;5035764;28;20428;-81
2021/05/24 18:08:46;;;;;;;;;;;17.00;55.20;;;;;;5034222;28;20431;-81
2021/05/24 18:11:21;;;;;;;;;;;16.90;55.30;;;;;;5036688;28;20803;-81
2021/05/24 18:13:52;;;;;;;;;;;16.70;55.40;;;;;;5039734;28;19913;-81
2021/05/24 18:16:20;;;;;;;;;;;16.70;55.60;;;;;;5041600;28;19923;-81
2021/05/24 18:18:56;;;;;;;;;;;16.60;55.60;;;;;;5039938;28;19913;-81
2021/05/24 18:21:30;;;;;;;;;;;16.50;55.70;;;;;;5032828;28;19920;-81
2021/05/24 18:24:03;;;;;;;;;;;16.50;55.80;;;;;;5041249;28;19916;-81
2021/05/24 18:26:29;;;;;;;;;;;16.40;55.90;;;;;;5035947;28;19947;-81
2021/05/24 18:28:57;;;;;;;;;;;16.30;55.90;;;;;;5042464;28;19917;-80
2021/05/24 18:31:39;;;;;;;;;;;16.20;56.00;;;;;;5042275;28;20020;-81
2021/05/24 18:34:29;;;;;;;;;;;16.10;56.10;;;;;;5038789;28;19913;-81
2021/05/24 18:40:04;;;;;;;;;;;15.80;56.30;;;;;;5037914;28;19917;-81
2021/05/24 18:42:29;;;;;;;;;;;15.40;56.40;;;;;;5033655;28;20316;-82
2021/05/24 18:44:55;;;;;;;;;;;15.00;56.90;;;;;;5041438;28;19957;-81
2021/05/24 18:51:02;;;;;;;;;;;14.00;58.30;;;;;;4982152;28;19934;-81
2021/05/24 18:57:09;;;;;;;;;;;13.20;60.40;;;;;;5038639;28;19984;-81
2021/05/24 19:09:36;;;;;;;;;;;;;;;;;;;;;
2021/05/24 19:21:47;;;;;;;;;;;12.10;67.30;;;;;;4943545;29;19935;-81
2021/05/24 19:40:10;;;;;;;;;;;11.80;71.50;;;;;;5019559;28;20327;-80
2021/05/24 20:26:22;;;;;;;;;;;11.50;78.90;;;;;;5003135;28;19965;-81
2021/05/24 20:28:48;;;;;;;;;;;11.50;79.40;;;;;;5033588;28;19910;-81
2021/05/24 20:31:32;;;;;;;;;;;11.40;79.80;;;;;;5000603;28;20357;-82
2021/05/24 20:33:57;;;;;;;;;;;11.40;80.30;;;;;;4996182;28;19917;-82
2021/05/24 20:36:26;;;;;;;;;;;11.40;80.70;;;;;;4999565;28;19905;-81